createdAt,value
2022-11-29T00:00:17.515Z,3.86
2022-11-29T00:02:18.687Z,3.86
2022-11-29T00:04:19.745Z,3.86
2022-11-29T00:06:20.845Z,3.86
2022-11-29T00:08:22.368Z,3.86
2022-11-29T00:10:23.475Z,3.86
2022-11-29T00:14:26.548Z,3.86
2022-11-29T00:16:27.910Z,3.86
2022-11-29T00:20:31.537Z,3.86
2022-11-29T00:22:32.685Z,3.85
2022-11-29T00:24:33.746Z,3.85
2022-11-29T00:26:35.182Z,3.86
2022-11-29T00:28:36.709Z,3.85
2022-11-29T00:30:37.757Z,3.85
2022-11-29T00:32:39.723Z,3.86
2022-11-29T00:36:42.313Z,3.85
2022-11-29T00:38:44.234Z,3.85
2022-11-29T00:40:45.722Z,3.85
2022-11-29T00:42:47.675Z,3.85
2022-11-29T00:46:50.500Z,3.85
2022-11-29T00:48:52.371Z,3.85
2022-11-29T00:50:54.126Z,3.85
2022-11-29T00:52:56.079Z,3.85
2022-11-29T00:54:57.210Z,3.85
2022-11-29T00:56:58.570Z,3.85
2022-11-29T00:59:00.334Z,3.85
2022-11-29T01:03:02.524Z,3.85
2022-11-29T01:05:04.125Z,3.85
2022-11-29T01:07:05.105Z,3.85
2022-11-29T01:09:06.831Z,3.85
2022-11-29T01:11:08.012Z,3.85
2022-11-29T01:13:09.211Z,3.85
2022-11-29T01:15:11.144Z,3.85
2022-11-29T01:19:14.455Z,3.84
2022-11-29T01:21:16.131Z,3.85
2022-11-29T01:23:17.116Z,3.84
2022-11-29T01:25:18.856Z,3.84
2022-11-29T01:29:21.001Z,3.84
2022-11-29T01:31:22.405Z,3.84
2022-11-29T01:33:23.716Z,3.85
2022-11-29T01:35:25.066Z,3.84
2022-11-29T01:37:26.987Z,3.84
2022-11-29T01:39:28.486Z,3.84
2022-11-29T01:41:30.001Z,3.84
2022-11-29T01:45:33.060Z,3.84
2022-11-29T01:47:34.908Z,3.84
2022-11-29T01:51:38.187Z,3.84
2022-11-29T01:53:39.135Z,3.84
2022-11-29T01:55:40.679Z,3.84
2022-11-29T01:57:42.321Z,3.84
2022-11-29T02:01:44.700Z,3.84
2022-11-29T02:03:46.148Z,3.84
2022-11-29T02:05:47.399Z,3.84
2022-11-29T02:07:48.570Z,3.84
2022-11-29T02:11:51.808Z,3.84
2022-11-29T02:13:52.828Z,3.84
2022-11-29T02:15:54.558Z,3.84
2022-11-29T02:17:55.841Z,3.84
2022-11-29T02:19:57.108Z,3.84
2022-11-29T02:21:58.999Z,3.84
2022-11-29T02:24:00.410Z,3.84
2022-11-29T02:28:03.105Z,3.84
2022-11-29T02:30:04.465Z,3.84
2022-11-29T02:32:06.066Z,3.84
2022-11-29T02:34:07.357Z,3.84
2022-11-29T02:36:08.814Z,3.84
2022-11-29T02:38:09.954Z,3.84
2022-11-29T02:40:11.240Z,3.84
2022-11-29T02:44:13.682Z,3.84
2022-11-29T02:46:15.407Z,3.84
2022-11-29T02:49:00.683Z,3.84
2022-11-29T02:51:02.198Z,3.84
2022-11-29T02:55:04.432Z,3.83
2022-11-29T02:57:05.807Z,3.84
2022-11-29T02:59:07.392Z,3.84
2022-11-29T03:01:09.219Z,3.83
2022-11-29T03:05:11.782Z,3.84
2022-11-29T03:07:13.683Z,3.83
2022-11-29T03:09:15.239Z,3.83
2022-11-29T03:11:16.792Z,3.83
2022-11-29T03:13:18.522Z,3.83
2022-11-29T03:15:20.433Z,3.83
2022-11-29T03:17:21.709Z,3.83
2022-11-29T03:21:24.538Z,3.83
2022-11-29T03:23:26.236Z,3.83
2022-11-29T03:25:27.974Z,3.83
2022-11-29T03:27:29.750Z,3.83
2022-11-29T03:29:31.165Z,3.83
2022-11-29T03:31:32.527Z,3.83
2022-11-29T03:33:33.670Z,3.83
2022-11-29T03:37:37.171Z,3.83
2022-11-29T03:39:38.855Z,3.83
2022-11-29T03:41:40.764Z,3.83
2022-11-29T03:43:41.783Z,3.83
2022-11-29T03:47:44.380Z,3.83
2022-11-29T03:49:45.609Z,3.83
2022-11-29T03:53:48.838Z,3.83
2022-11-29T03:55:49.872Z,3.82
2022-11-29T03:57:51.441Z,3.83
2022-11-29T03:59:52.652Z,3.83
2022-11-29T04:03:55.057Z,3.82
2022-11-29T04:05:56.561Z,3.82
2022-11-29T04:07:58.241Z,3.83
2022-11-29T04:10:00.002Z,3.82
2022-11-29T04:12:01.085Z,3.82
2022-11-29T04:14:02.123Z,3.82
2022-11-29T04:16:04.040Z,3.82
2022-11-29T04:20:07.397Z,3.82
2022-11-29T04:22:08.735Z,3.82
2022-11-29T04:24:10.190Z,3.82
2022-11-29T04:26:11.350Z,3.82
2022-11-29T04:30:15.070Z,3.82
2022-11-29T04:32:16.178Z,3.82
2022-11-29T04:34:17.765Z,3.82
2022-11-29T04:36:19.467Z,3.82
2022-11-29T04:38:20.599Z,3.82
2022-11-29T04:40:21.859Z,3.82
2022-11-29T04:42:22.992Z,3.82
2022-11-29T04:46:26.755Z,3.82
2022-11-29T04:48:28.623Z,3.82
2022-11-29T04:52:31.608Z,3.82
2022-11-29T04:54:33.317Z,3.82
2022-11-29T04:56:34.779Z,3.82
2022-11-29T04:58:35.996Z,3.82
2022-11-29T05:02:38.314Z,3.82
2022-11-29T05:04:39.424Z,3.82
2022-11-29T05:06:41.349Z,3.82
2022-11-29T05:08:43.125Z,3.82
2022-11-29T05:12:46.029Z,3.82
2022-11-29T05:14:47.434Z,3.82
2022-11-29T05:18:50.618Z,3.82
2022-11-29T05:20:52.287Z,3.82
2022-11-29T05:22:53.652Z,3.82
2022-11-29T05:24:54.871Z,3.82
2022-11-29T05:28:57.977Z,3.82
2022-11-29T05:30:59.346Z,3.82
2022-11-29T05:33:01.294Z,3.82
2022-11-29T05:35:03.184Z,3.81
2022-11-29T05:37:04.451Z,3.82
2022-11-29T05:39:06.344Z,3.82
2022-11-29T05:41:07.884Z,3.81
2022-11-29T05:45:10.792Z,3.81
2022-11-29T05:47:11.995Z,3.81
2022-11-29T05:49:13.461Z,3.81
2022-11-29T05:51:15.350Z,3.82
2022-11-29T05:53:17.057Z,3.81
2022-11-29T05:55:18.151Z,3.81
2022-11-29T05:57:19.696Z,3.81
2022-11-29T06:01:22.223Z,3.81
2022-11-29T06:03:23.885Z,3.81
2022-11-29T06:05:25.689Z,3.81
2022-11-29T06:07:27.408Z,3.81
2022-11-29T06:11:30.704Z,3.81
2022-11-29T06:13:32.081Z,3.81
2022-11-29T06:15:33.229Z,3.81
2022-11-29T06:17:38.727Z,3.81
2022-11-29T06:19:35.924Z,3.81
2022-11-29T06:21:37.429Z,3.81
2022-11-29T06:23:38.749Z,3.81
2022-11-29T06:27:41.428Z,3.81
2022-11-29T06:29:43.323Z,3.81
2022-11-29T06:31:44.511Z,3.81
2022-11-29T06:33:46.244Z,3.81
2022-11-29T06:35:48.066Z,3.81
2022-11-29T06:37:50.052Z,3.81
2022-11-29T06:39:51.213Z,3.81
2022-11-29T06:43:54.251Z,3.81
2022-11-29T06:45:56.067Z,3.81
2022-11-29T06:47:57.860Z,3.8
2022-11-29T06:49:58.913Z,3.8
2022-11-29T06:54:01.833Z,3.8
2022-11-29T06:56:03.465Z,3.8
2022-11-29T07:00:06.335Z,3.8
2022-11-29T07:02:07.530Z,3.8
2022-11-29T07:04:09.441Z,3.8
2022-11-29T07:06:11.275Z,3.8
2022-11-29T07:10:15.036Z,3.8
2022-11-29T07:12:15.554Z,3.8
2022-11-29T07:14:16.905Z,3.8
2022-11-29T07:16:18.561Z,3.8
2022-11-29T07:18:20.271Z,3.8
2022-11-29T07:20:22.182Z,3.8
2022-11-29T07:22:23.652Z,3.8
2022-11-29T07:26:26.746Z,3.8
2022-11-29T07:28:28.235Z,3.8
2022-11-29T07:30:30.172Z,3.8
2022-11-29T07:32:31.267Z,3.8
2022-11-29T07:36:34.034Z,3.8
2022-11-29T07:38:35.742Z,3.8
2022-11-29T07:42:38.690Z,3.8
2022-11-29T07:44:40.515Z,3.8
2022-11-29T07:46:41.661Z,3.8
2022-11-29T07:48:43.203Z,3.8
2022-11-29T07:52:46.183Z,3.8
2022-11-29T07:54:47.793Z,3.8
2022-11-29T07:56:49.229Z,3.8
2022-11-29T07:58:50.853Z,3.8
2022-11-29T08:00:52.270Z,3.8
2022-11-29T08:02:53.505Z,3.8
2022-11-29T08:04:55.061Z,3.8
2022-11-29T08:08:57.334Z,3.8
2022-11-29T08:10:59.246Z,3.8
2022-11-29T08:13:01.100Z,3.8
2022-11-29T08:15:02.787Z,3.8
2022-11-29T08:19:05.695Z,3.8
2022-11-29T08:21:07.530Z,3.79
2022-11-29T08:25:10.866Z,3.8
2022-11-29T08:27:12.133Z,3.8
2022-11-29T08:29:13.859Z,3.79
2022-11-29T08:31:15.519Z,3.8
2022-11-29T08:35:18.383Z,3.79
2022-11-29T08:37:19.814Z,3.79
2022-11-29T08:39:21.411Z,3.8
2022-11-29T08:41:22.531Z,3.8
2022-11-29T08:43:23.947Z,3.8
2022-11-29T08:45:25.005Z,3.79
2022-11-29T08:47:26.324Z,3.8
2022-11-29T08:51:29.579Z,3.8
2022-11-29T08:53:30.841Z,3.8
2022-11-29T08:55:31.962Z,3.8
2022-11-29T08:57:40.673Z,3.8
2022-11-29T09:01:36.241Z,3.8
2022-11-29T09:03:37.931Z,3.8
2022-11-29T09:05:39.015Z,3.8
2022-11-29T09:07:40.166Z,3.8
2022-11-29T09:09:41.309Z,3.79
2022-11-29T09:11:45.831Z,3.8
2022-11-29T09:13:44.605Z,3.8
2022-11-29T09:17:47.518Z,3.8
2022-11-29T09:19:48.860Z,3.8
2022-11-29T09:23:52.135Z,3.8
2022-11-29T09:25:53.189Z,3.8
2022-11-29T09:27:54.895Z,3.8
2022-11-29T09:29:56.786Z,3.8
2022-11-29T09:32:42.402Z,3.8
2022-11-29T09:34:44.174Z,3.8
2022-11-29T09:36:44.964Z,3.8
2022-11-29T09:38:46.066Z,3.8
2022-11-29T09:40:47.193Z,3.79
2022-11-29T09:44:49.841Z,3.79
2022-11-29T09:46:54.456Z,3.79
2022-11-29T09:48:52.566Z,3.79
2022-11-29T09:50:54.331Z,3.79
2022-11-29T09:54:56.519Z,3.79
2022-11-29T09:56:57.662Z,3.79
2022-11-29T10:01:00.486Z,3.79
2022-11-29T10:03:01.791Z,3.79
2022-11-29T10:05:03.204Z,3.79
2022-11-29T10:07:04.968Z,3.79
2022-11-29T10:11:07.851Z,3.79
2022-11-29T10:13:09.032Z,3.79
2022-11-29T10:15:10.012Z,3.79
2022-11-29T10:17:11.929Z,3.79
2022-11-29T10:19:13.221Z,3.79
2022-11-29T10:21:14.300Z,3.79
2022-11-29T10:23:15.242Z,3.79
2022-11-29T10:27:18.029Z,3.79
2022-11-29T10:29:19.757Z,3.79
2022-11-29T10:31:20.876Z,3.79
2022-11-29T10:33:22.169Z,3.79
2022-11-29T10:37:25.216Z,3.79
2022-11-29T10:39:26.481Z,3.79
2022-11-29T10:41:28.328Z,3.79
2022-11-29T10:43:29.321Z,3.79
2022-11-29T10:45:31.270Z,3.79
2022-11-29T10:47:32.811Z,3.79
2022-11-29T10:49:34.645Z,3.79
2022-11-29T10:53:37.118Z,3.79
2022-11-29T10:55:38.816Z,3.78
2022-11-29T10:59:42.461Z,3.78
2022-11-29T11:01:43.507Z,3.79
2022-11-29T11:03:46.235Z,3.78
2022-11-29T11:05:45.688Z,3.79
2022-11-29T11:07:47.488Z,3.78
2022-11-29T11:09:48.409Z,3.78
2022-11-29T11:11:49.799Z,3.78
2022-11-29T11:13:59.605Z,3.79
2022-11-29T11:15:53.011Z,3.79
2022-11-29T11:19:55.400Z,3.79
2022-11-29T11:21:56.682Z,3.79
2022-11-29T11:25:59.073Z,3.79
2022-11-29T11:28:00.403Z,3.79
2022-11-29T11:30:02.191Z,3.79
2022-11-29T11:32:03.822Z,3.79
2022-11-29T11:36:06.610Z,3.79
2022-11-29T11:38:08.069Z,3.79
2022-11-29T11:40:09.734Z,3.79
2022-11-29T11:42:11.034Z,3.79
2022-11-29T11:44:15.197Z,3.78
2022-11-29T11:46:17.921Z,3.78
2022-11-29T11:48:16.071Z,3.79
2022-11-29T11:52:19.346Z,3.78
2022-11-29T11:54:20.665Z,3.78
2022-11-29T11:56:21.970Z,3.78
2022-11-29T11:58:23.023Z,3.78
2022-11-29T12:00:40.732Z,3.78
2022-11-29T12:02:25.897Z,3.78
2022-11-29T12:04:27.411Z,3.78
2022-11-29T12:08:30.206Z,3.78
2022-11-29T12:10:31.782Z,3.78
2022-11-29T12:12:33.430Z,3.78
2022-11-29T12:14:34.429Z,3.78
2022-11-29T12:18:37.177Z,3.78
2022-11-29T12:20:38.933Z,3.78
2022-11-29T12:22:43.884Z,3.78
2022-11-29T12:24:42.456Z,3.78
2022-11-29T12:26:56.745Z,3.78
2022-11-29T12:28:45.771Z,3.78
2022-11-29T12:30:47.591Z,3.78
2022-11-29T12:34:50.136Z,3.78
2022-11-29T12:36:51.280Z,3.78
2022-11-29T12:38:52.258Z,3.78
2022-11-29T12:40:53.448Z,3.78
2022-11-29T12:42:54.994Z,3.77
2022-11-29T12:44:56.560Z,3.78
2022-11-29T12:47:13.445Z,3.78
2022-11-29T12:51:01.177Z,3.77
2022-11-29T12:53:02.951Z,3.78
2022-11-29T12:55:04.680Z,3.78
2022-11-29T12:57:06.360Z,3.77
2022-11-29T13:01:09.644Z,3.77
2022-11-29T13:03:10.816Z,3.77
2022-11-29T13:07:13.945Z,3.78
2022-11-29T13:09:15.703Z,3.77
2022-11-29T13:11:17.483Z,3.77
2022-11-29T13:13:19.348Z,3.78
2022-11-29T13:17:23.044Z,3.77
2022-11-29T13:19:24.511Z,3.77
2022-11-29T13:21:25.820Z,3.77
2022-11-29T13:23:39.381Z,3.77
2022-11-29T13:25:28.836Z,3.77
2022-11-29T13:27:30.051Z,3.77
2022-11-29T13:29:31.088Z,3.77
2022-11-29T13:33:33.506Z,3.77
2022-11-29T13:35:34.702Z,3.77
2022-11-29T13:37:36.056Z,3.77
2022-11-29T13:39:37.241Z,3.77
2022-11-29T13:43:40.438Z,3.77
2022-11-29T13:45:41.881Z,3.77
2022-11-29T13:47:43.440Z,3.77
2022-11-29T13:49:44.653Z,3.77
2022-11-29T13:51:46.424Z,3.77
2022-11-29T13:53:49.009Z,3.77
2022-11-29T13:55:49.964Z,3.77
2022-11-29T13:59:52.867Z,3.77
2022-11-29T14:01:54.485Z,3.76
2022-11-29T14:05:57.155Z,3.77
2022-11-29T14:07:59.096Z,3.77
2022-11-29T14:10:01.009Z,3.76
2022-11-29T14:12:02.785Z,3.76
2022-11-29T14:16:06.252Z,3.77
2022-11-29T14:18:07.307Z,3.76
2022-11-29T14:20:08.993Z,3.76
2022-11-29T14:22:10.546Z,3.76
2022-11-29T14:24:11.896Z,3.76
2022-11-29T14:26:13.493Z,3.76
2022-11-29T14:28:15.221Z,3.76
2022-11-29T14:30:16.440Z,3.76
2022-11-29T14:32:18.196Z,3.76
2022-11-29T14:34:19.182Z,3.76
2022-11-29T14:36:20.497Z,3.76
2022-11-29T14:38:25.119Z,3.76
2022-11-29T14:42:24.730Z,3.76
2022-11-29T14:44:25.928Z,3.76
2022-11-29T14:46:29.371Z,3.76
2022-11-29T14:48:28.196Z,3.76
2022-11-29T14:50:29.896Z,3.76
2022-11-29T14:52:31.456Z,3.76
2022-11-29T14:54:33.277Z,3.76
2022-11-29T14:58:36.464Z,3.76
2022-11-29T15:00:37.909Z,3.76
2022-11-29T15:02:39.241Z,3.76
2022-11-29T15:04:40.874Z,3.76
2022-11-29T15:06:46.260Z,3.76
2022-11-29T15:08:43.795Z,3.76
2022-11-29T15:10:45.248Z,3.76
2022-11-29T15:14:48.022Z,3.76
2022-11-29T15:16:49.523Z,3.76
2022-11-29T15:18:51.139Z,3.76
2022-11-29T15:20:52.979Z,3.76
2022-11-29T15:24:55.572Z,3.76
2022-11-29T15:26:56.668Z,3.76
2022-11-29T15:28:58.215Z,3.76
2022-11-29T15:30:59.804Z,3.76
2022-11-29T15:33:01.662Z,3.76
2022-11-29T15:35:02.833Z,3.76
2022-11-29T15:37:04.707Z,3.75
2022-11-29T15:41:07.587Z,3.75
2022-11-29T15:43:08.863Z,3.75
2022-11-29T15:45:10.510Z,3.76
2022-11-29T15:47:12.009Z,3.75
2022-11-29T15:49:13.446Z,3.75
2022-11-29T15:51:14.710Z,3.75
2022-11-29T15:53:15.761Z,3.75
2022-11-29T15:57:18.581Z,3.76
2022-11-29T15:59:19.586Z,3.75
2022-11-29T16:01:21.453Z,3.75
2022-11-29T16:03:22.743Z,3.75
2022-11-29T16:07:25.976Z,3.75
2022-11-29T16:09:27.036Z,3.75
2022-11-29T16:13:29.418Z,3.75
2022-11-29T16:15:31.392Z,3.75
2022-11-29T16:17:33.029Z,3.75
2022-11-29T16:18:16.876Z,3.75
2022-11-29T16:20:17.956Z,3.75
2022-11-29T16:22:18.957Z,3.75
2022-11-29T16:24:20.026Z,3.75
2022-11-29T16:26:21.523Z,3.75
2022-11-29T16:28:23.295Z,3.75
2022-11-29T16:30:24.183Z,3.75
2022-11-29T16:34:27.010Z,3.75
2022-11-29T16:36:28.891Z,3.75
2022-11-29T16:38:30.424Z,3.75
2022-11-29T16:40:32.331Z,3.75
2022-11-29T16:44:34.984Z,3.74
2022-11-29T16:46:36.825Z,3.74
2022-11-29T16:48:38.621Z,3.74
2022-11-29T16:50:39.654Z,3.75
2022-11-29T16:52:40.773Z,3.74
2022-11-29T16:54:42.330Z,3.74
2022-11-29T16:56:44.286Z,3.74
2022-11-29T17:00:47.339Z,3.74
2022-11-29T17:02:48.987Z,3.74
2022-11-29T17:06:52.479Z,3.75
2022-11-29T17:08:53.871Z,3.74
2022-11-29T17:10:55.502Z,3.74
2022-11-29T17:12:57.041Z,3.74
2022-11-29T17:17:00.493Z,3.74
2022-11-29T17:19:01.492Z,3.74
2022-11-29T17:21:03.410Z,3.74
2022-11-29T17:23:05.142Z,3.74
2022-11-29T17:27:08.107Z,3.74
2022-11-29T17:29:09.786Z,3.74
2022-11-29T17:33:12.477Z,3.74
2022-11-29T17:35:14.158Z,3.74
2022-11-29T17:37:15.153Z,3.74
2022-11-29T17:39:16.375Z,3.74
2022-11-29T17:43:19.654Z,3.74
2022-11-29T17:45:21.426Z,3.74
2022-11-29T17:47:22.652Z,3.74
2022-11-29T17:49:24.472Z,3.74
2022-11-29T17:51:50.963Z,3.74
2022-11-29T17:53:27.386Z,3.74
2022-11-29T17:55:29.689Z,3.74
2022-11-29T17:59:32.254Z,3.74
2022-11-29T18:01:34.025Z,3.74
2022-11-29T18:03:35.812Z,3.74
2022-11-29T18:05:36.868Z,3.74
2022-11-29T18:09:39.698Z,3.73
2022-11-29T18:11:45.193Z,3.74
2022-11-29T18:15:43.759Z,3.73
2022-11-29T18:17:45.133Z,3.73
2022-11-29T18:21:47.834Z,3.73
2022-11-29T18:23:49.246Z,3.73
2022-11-29T18:25:50.671Z,3.73
2022-11-29T18:27:51.763Z,3.74
2022-11-29T18:31:55.312Z,3.73
2022-11-29T18:33:56.625Z,3.73
2022-11-29T18:35:57.897Z,3.73
2022-11-29T18:38:14.467Z,3.73
2022-11-29T18:42:02.171Z,3.73
2022-11-29T18:44:03.437Z,3.73
2022-11-29T18:46:05.127Z,3.73
2022-11-29T18:48:06.230Z,3.73
2022-11-29T18:50:07.395Z,3.73
2022-11-29T18:52:08.796Z,3.73
2022-11-29T18:54:09.884Z,3.73
2022-11-29T18:58:12.740Z,3.73
2022-11-29T19:00:14.608Z,3.72
2022-11-29T19:02:16.286Z,3.73
2022-11-29T19:04:17.738Z,3.72
2022-11-29T19:06:19.063Z,3.72
2022-11-29T19:08:20.500Z,3.72
2022-11-29T19:10:22.312Z,3.72
2022-11-29T19:14:24.997Z,3.73
2022-11-29T19:16:26.021Z,3.72
2022-11-29T19:18:27.509Z,3.72
2022-11-29T19:20:28.999Z,3.72
2022-11-29T19:22:30.322Z,3.72
2022-11-29T19:24:31.805Z,3.72
2022-11-29T19:26:33.180Z,3.72
2022-11-29T19:30:36.346Z,3.72
2022-11-29T19:32:37.461Z,3.72
2022-11-29T19:34:38.815Z,3.72
2022-11-29T19:36:39.804Z,3.72
2022-11-29T19:40:43.011Z,3.72
2022-11-29T19:42:44.294Z,3.72
2022-11-29T19:45:15.158Z,3.72
2022-11-29T19:46:46.559Z,3.72
2022-11-29T19:48:48.337Z,3.72
2022-11-29T19:50:49.646Z,3.72
2022-11-29T19:52:50.794Z,3.72
2022-11-29T19:56:53.590Z,3.72
2022-11-29T19:58:55.038Z,3.72
2022-11-29T20:00:56.850Z,3.72
2022-11-29T20:02:58.129Z,3.72
2022-11-29T20:04:59.740Z,3.72
2022-11-29T20:07:01.238Z,3.72
2022-11-29T20:09:02.447Z,3.72
2022-11-29T20:13:05.316Z,3.71
2022-11-29T20:15:06.769Z,3.71
2022-11-29T20:17:08.610Z,3.72
2022-11-29T20:19:18.317Z,3.71
2022-11-29T20:21:11.745Z,3.71
2022-11-29T20:23:13.077Z,3.72
2022-11-29T20:25:14.795Z,3.71
2022-11-29T20:29:17.884Z,3.71
2022-11-29T20:31:19.526Z,3.71
2022-11-29T20:33:21.116Z,3.71
2022-11-29T20:35:22.705Z,3.71
2022-11-29T20:39:25.675Z,3.71
2022-11-29T20:41:27.558Z,3.71
2022-11-29T20:43:28.616Z,3.71
2022-11-29T20:45:30.296Z,3.71
2022-11-29T20:47:32.182Z,3.71
2022-11-29T20:49:33.811Z,3.71
2022-11-29T20:51:35.196Z,3.71
2022-11-29T20:55:41.430Z,3.71
2022-11-29T20:57:40.865Z,3.7
2022-11-29T20:59:42.013Z,3.7
2022-11-29T21:01:43.680Z,3.71
2022-11-29T21:03:44.924Z,3.71
2022-11-29T21:05:45.963Z,3.71
2022-11-29T21:07:47.931Z,3.7
2022-11-29T21:09:49.625Z,3.7
2022-11-29T21:11:51.440Z,3.7
2022-11-29T21:13:53.339Z,3.7
2022-11-29T21:15:54.515Z,3.7
2022-11-29T21:17:56.283Z,3.7
2022-11-29T21:21:59.589Z,3.7
2022-11-29T21:24:00.633Z,3.7
2022-11-29T21:28:03.809Z,3.7
2022-11-29T21:30:05.417Z,3.7
2022-11-29T21:32:07.175Z,3.7
2022-11-29T21:34:08.390Z,3.7
2022-11-29T21:38:10.542Z,3.7
2022-11-29T21:40:11.975Z,3.7
2022-11-29T21:42:13.161Z,3.7
2022-11-29T21:44:15.018Z,3.7
2022-11-29T21:48:17.766Z,3.7
2022-11-29T21:50:19.246Z,3.7
2022-11-29T21:52:22.700Z,3.7
2022-11-29T21:54:21.535Z,3.7
2022-11-29T21:56:22.541Z,3.7
2022-11-29T21:58:24.214Z,3.7
2022-11-29T22:00:25.859Z,3.7
2022-11-29T22:04:28.028Z,3.7
2022-11-29T22:06:29.872Z,3.7
2022-11-29T22:08:30.979Z,3.7
2022-11-29T22:10:32.707Z,3.7
2022-11-29T22:12:34.958Z,3.7
2022-11-29T22:14:35.483Z,3.7
2022-11-29T22:16:36.665Z,3.7
2022-11-29T22:20:40.103Z,3.7
2022-11-29T22:22:41.309Z,3.7
2022-11-29T22:24:42.655Z,3.7
2022-11-29T22:26:44.258Z,3.69
2022-11-29T22:28:45.914Z,3.7
2022-11-29T22:30:47.151Z,3.69
2022-11-29T22:32:48.930Z,3.7
2022-11-29T22:36:51.317Z,3.69
2022-11-29T22:38:53.244Z,3.69
2022-11-29T22:40:55.070Z,3.69
2022-11-29T22:42:57.033Z,3.69
2022-11-29T22:47:00.026Z,3.69
2022-11-29T22:49:01.000Z,3.7
2022-11-29T22:51:02.255Z,3.69
2022-11-29T22:53:03.400Z,3.69
2022-11-29T22:55:05.317Z,3.69
2022-11-29T22:57:05.903Z,3.69
2022-11-29T22:59:07.499Z,3.69
2022-11-29T23:03:10.919Z,3.69
2022-11-29T23:03:54.764Z,3.68
2022-11-29T23:05:56.005Z,3.69
2022-11-29T23:07:57.761Z,3.69
2022-11-29T23:09:59.147Z,3.69
2022-11-29T23:14:02.274Z,3.69
2022-11-29T23:16:04.149Z,3.68
2022-11-29T23:18:05.856Z,3.69
2022-11-29T23:20:07.780Z,3.69
2022-11-29T23:24:10.678Z,3.69
2022-11-29T23:26:11.678Z,3.69
2022-11-29T23:30:14.436Z,3.69
2022-11-29T23:32:15.685Z,3.69
2022-11-29T23:34:16.643Z,3.68
2022-11-29T23:36:18.602Z,3.68
2022-11-29T23:40:21.535Z,3.68
2022-11-29T23:42:23.278Z,3.68
2022-11-29T23:44:24.597Z,3.68
2022-11-29T23:46:25.616Z,3.68
2022-11-29T23:48:26.638Z,3.68
2022-11-29T23:50:28.062Z,3.68
2022-11-29T23:52:29.539Z,3.68
2022-11-29T23:56:32.923Z,3.68
2022-11-29T23:58:34.248Z,3.68
